sensor_id;sensor_type;location;lat;lon;timestamp;pressure;altitude;pressure_sealevel;temperature
79495;BMP180;68951;53.130;18.104;2023-06-14T00:00:44;101399.20;;;
79495;BMP180;68951;53.130;18.104;2023-06-14T00:03:31;101400.60;;;
79495;BMP180;68951;53.130;18.104;2023-06-14T00:05:58;101398.20;;;
79495;BMP180;68951;53.130;18.104;2023-06-14T00:08:25;101396.00;;;
79495;BMP180;68951;53.130;18.104;2023-06-14T00:10:52;101394.60;;;
79495;BMP180;68951;53.130;18.104;2023-06-14T00:13:20;101392.00;;;
79495;BMP180;68951;53.130;18.104;2023-06-14T00:15:47;101389.80;;;
79495;BMP180;68951;53.130;18.104;2023-06-14T00:18:14;101390.40;;;
79495;BMP180;68951;53.130;18.104;2023-06-14T00:20:41;101390.20;;;
79495;BMP180;68951;53.130;18.104;2023-06-14T00:23:09;101387.20;;;
79495;BMP180;68951;53.130;18.104;2023-06-14T00:25:36;101390.20;;;
79495;BMP180;68951;53.130;18.104;2023-06-14T00:28:03;101388.00;;;
79495;BMP180;68951;53.130;18.104;2023-06-14T00:30:30;101383.80;;;
79495;BMP180;68951;53.130;18.104;2023-06-14T00:32:57;101380.20;;;
79495;BMP180;68951;53.130;18.104;2023-06-14T00:35:24;101381.20;;;
79495;BMP180;68951;53.130;18.104;2023-06-14T00:37:52;101380.00;;;
79495;BMP180;68951;53.130;18.104;2023-06-14T00:40:22;101378.40;;;
79495;BMP180;68951;53.130;18.104;2023-06-14T00:42:49;101378.60;;;
79495;BMP180;68951;53.130;18.104;2023-06-14T00:45:16;101372.60;;;
79495;BMP180;68951;53.130;18.104;2023-06-14T00:47:43;101370.60;;;
79495;BMP180;68951;53.130;18.104;2023-06-14T00:50:10;101366.40;;;
79495;BMP180;68951;53.130;18.104;2023-06-14T00:52:38;101364.00;;;
79495;BMP180;68951;53.130;18.104;2023-06-14T00:55:06;101362.60;;;
79495;BMP180;68951;53.130;18.104;2023-06-14T00:57:33;101360.20;;;
79495;BMP180;68951;53.130;18.104;2023-06-14T01:00:04;101355.20;;;
79495;BMP180;68951;53.130;18.104;2023-06-14T01:02:37;101341.00;;;
79495;BMP180;68951;53.130;18.104;2023-06-14T01:05:06;101337.40;;;
79495;BMP180;68951;53.130;18.104;2023-06-14T01:10:47;101329.00;;;
79495;BMP180;68951;53.130;18.104;2023-06-14T01:13:35;101331.80;;;
79495;BMP180;68951;53.130;18.104;2023-06-14T01:16:04;101331.20;;;
79495;BMP180;68951;53.130;18.104;2023-06-14T01:18:32;101329.40;;;
79495;BMP180;68951;53.130;18.104;2023-06-14T01:21:00;101325.60;;;
79495;BMP180;68951;53.130;18.104;2023-06-14T01:23:32;101332.40;;;
79495;BMP180;68951;53.130;18.104;2023-06-14T01:26:01;101333.20;;;
79495;BMP180;68951;53.130;18.104;2023-06-14T01:28:30;101331.40;;;
79495;BMP180;68951;53.130;18.104;2023-06-14T01:31:01;101329.80;;;
79495;BMP180;68951;53.130;18.104;2023-06-14T01:33:32;101331.20;;;
79495;BMP180;68951;53.130;18.104;2023-06-14T01:36:02;101332.00;;;
79495;BMP180;68951;53.130;18.104;2023-06-14T01:38:30;101333.00;;;
79495;BMP180;68951;53.130;18.104;2023-06-14T01:40:59;101327.80;;;
79495;BMP180;68951;53.130;18.104;2023-06-14T01:43:30;101322.20;;;
79495;BMP180;68951;53.130;18.104;2023-06-14T01:45:58;101320.80;;;
79495;BMP180;68951;53.130;18.104;2023-06-14T01:48:26;101320.00;;;
79495;BMP180;68951;53.130;18.104;2023-06-14T01:50:53;101315.00;;;
79495;BMP180;68951;53.130;18.104;2023-06-14T01:53:20;101309.20;;;
79495;BMP180;68951;53.130;18.104;2023-06-14T01:55:47;101309.60;;;
79495;BMP180;68951;53.130;18.104;2023-06-14T01:58:16;101311.20;;;
79495;BMP180;68951;53.130;18.104;2023-06-14T02:00:43;101312.40;;;
79495;BMP180;68951;53.130;18.104;2023-06-14T02:03:11;101315.80;;;
79495;BMP180;68951;53.130;18.104;2023-06-14T02:05:39;101311.40;;;
79495;BMP180;68951;53.130;18.104;2023-06-14T02:08:07;101309.00;;;
79495;BMP180;68951;53.130;18.104;2023-06-14T02:10:34;101309.40;;;
79495;BMP180;68951;53.130;18.104;2023-06-14T02:13:01;101309.20;;;
79495;BMP180;68951;53.130;18.104;2023-06-14T02:15:28;101305.00;;;
79495;BMP180;68951;53.130;18.104;2023-06-14T02:18:02;101302.20;;;
79495;BMP180;68951;53.130;18.104;2023-06-14T02:20:29;101314.60;;;
79495;BMP180;68951;53.130;18.104;2023-06-14T02:22:57;101323.20;;;
79495;BMP180;68951;53.130;18.104;2023-06-14T02:25:24;101317.60;;;
79495;BMP180;68951;53.130;18.104;2023-06-14T02:27:51;101311.20;;;
79495;BMP180;68951;53.130;18.104;2023-06-14T02:30:18;101307.00;;;
79495;BMP180;68951;53.130;18.104;2023-06-14T02:32:45;101310.80;;;
79495;BMP180;68951;53.130;18.104;2023-06-14T02:35:12;101311.00;;;
79495;BMP180;68951;53.130;18.104;2023-06-14T02:37:40;101310.00;;;
79495;BMP180;68951;53.130;18.104;2023-06-14T02:40:07;101306.00;;;
79495;BMP180;68951;53.130;18.104;2023-06-14T02:42:35;101302.20;;;
79495;BMP180;68951;53.130;18.104;2023-06-14T02:45:02;101298.40;;;
79495;BMP180;68951;53.130;18.104;2023-06-14T02:47:30;101291.20;;;
79495;BMP180;68951;53.130;18.104;2023-06-14T02:49:57;101285.20;;;
79495;BMP180;68951;53.130;18.104;2023-06-14T02:52:24;101283.00;;;
79495;BMP180;68951;53.130;18.104;2023-06-14T02:54:51;101279.60;;;
79495;BMP180;68951;53.130;18.104;2023-06-14T02:57:18;101277.80;;;
79495;BMP180;68951;53.130;18.104;2023-06-14T02:59:46;101280.80;;;
79495;BMP180;68951;53.130;18.104;2023-06-14T03:02:12;101284.80;;;
79495;BMP180;68951;53.130;18.104;2023-06-14T03:04:39;101276.80;;;
79495;BMP180;68951;53.130;18.104;2023-06-14T03:07:07;101273.00;;;
79495;BMP180;68951;53.130;18.104;2023-06-14T03:09:38;101279.00;;;
79495;BMP180;68951;53.130;18.104;2023-06-14T03:12:06;101273.80;;;
79495;BMP180;68951;53.130;18.104;2023-06-14T03:14:36;101273.00;;;
79495;BMP180;68951;53.130;18.104;2023-06-14T03:17:03;101274.80;;;
79495;BMP180;68951;53.130;18.104;2023-06-14T03:19:31;101276.60;;;
79495;BMP180;68951;53.130;18.104;2023-06-14T03:21:58;101279.40;;;
79495;BMP180;68951;53.130;18.104;2023-06-14T03:24:25;101279.60;;;
79495;BMP180;68951;53.130;18.104;2023-06-14T03:26:55;101287.60;;;
79495;BMP180;68951;53.130;18.104;2023-06-14T03:29:23;101284.80;;;
79495;BMP180;68951;53.130;18.104;2023-06-14T03:32:02;101282.20;;;
79495;BMP180;68951;53.130;18.104;2023-06-14T03:34:29;101283.00;;;
79495;BMP180;68951;53.130;18.104;2023-06-14T03:36:56;101283.60;;;
79495;BMP180;68951;53.130;18.104;2023-06-14T03:39:22;101287.00;;;
79495;BMP180;68951;53.130;18.104;2023-06-14T03:41:49;101290.80;;;
79495;BMP180;68951;53.130;18.104;2023-06-14T03:44:18;101289.40;;;
79495;BMP180;68951;53.130;18.104;2023-06-14T03:46:46;101281.20;;;
79495;BMP180;68951;53.130;18.104;2023-06-14T03:49:13;101277.80;;;
79495;BMP180;68951;53.130;18.104;2023-06-14T03:51:40;101290.20;;;
79495;BMP180;68951;53.130;18.104;2023-06-14T03:54:07;101295.20;;;
79495;BMP180;68951;53.130;18.104;2023-06-14T03:56:34;101298.40;;;
79495;BMP180;68951;53.130;18.104;2023-06-14T03:59:01;101291.80;;;
79495;BMP180;68951;53.130;18.104;2023-06-14T04:01:28;101299.00;;;
79495;BMP180;68951;53.130;18.104;2023-06-14T04:03:57;101305.40;;;
79495;BMP180;68951;53.130;18.104;2023-06-14T04:06:24;101307.60;;;
79495;BMP180;68951;53.130;18.104;2023-06-14T04:09:01;101305.00;;;
79495;BMP180;68951;53.130;18.104;2023-06-14T04:11:29;101297.00;;;
79495;BMP180;68951;53.130;18.104;2023-06-14T04:13:56;101302.80;;;
79495;BMP180;68951;53.130;18.104;2023-06-14T04:16:25;101306.20;;;
79495;BMP180;68951;53.130;18.104;2023-06-14T04:18:52;101311.20;;;
79495;BMP180;68951;53.130;18.104;2023-06-14T04:21:19;101311.80;;;
79495;BMP180;68951;53.130;18.104;2023-06-14T04:23:46;101315.80;;;
79495;BMP180;68951;53.130;18.104;2023-06-14T04:26:13;101315.60;;;
79495;BMP180;68951;53.130;18.104;2023-06-14T04:28:41;101319.80;;;
79495;BMP180;68951;53.130;18.104;2023-06-14T04:31:08;101320.20;;;
79495;BMP180;68951;53.130;18.104;2023-06-14T04:33:38;101316.00;;;
79495;BMP180;68951;53.130;18.104;2023-06-14T04:36:10;101316.00;;;
79495;BMP180;68951;53.130;18.104;2023-06-14T04:38:40;101317.80;;;
79495;BMP180;68951;53.130;18.104;2023-06-14T04:41:07;101318.80;;;
79495;BMP180;68951;53.130;18.104;2023-06-14T04:43:38;101321.00;;;
79495;BMP180;68951;53.130;18.104;2023-06-14T04:46:05;101322.80;;;
79495;BMP180;68951;53.130;18.104;2023-06-14T04:48:39;101319.20;;;
79495;BMP180;68951;53.130;18.104;2023-06-14T04:51:08;101313.80;;;
79495;BMP180;68951;53.130;18.104;2023-06-14T04:53:36;101308.40;;;
79495;BMP180;68951;53.130;18.104;2023-06-14T04:56:04;101301.80;;;
79495;BMP180;68951;53.130;18.104;2023-06-14T04:58:31;101297.40;;;
79495;BMP180;68951;53.130;18.104;2023-06-14T05:00:59;101303.60;;;
79495;BMP180;68951;53.130;18.104;2023-06-14T05:03:26;101302.00;;;
79495;BMP180;68951;53.130;18.104;2023-06-14T05:05:54;101304.20;;;
79495;BMP180;68951;53.130;18.104;2023-06-14T05:08:22;101296.80;;;
79495;BMP180;68951;53.130;18.104;2023-06-14T05:10:52;101294.80;;;
79495;BMP180;68951;53.130;18.104;2023-06-14T05:13:19;101294.40;;;
79495;BMP180;68951;53.130;18.104;2023-06-14T05:15:47;101306.40;;;
79495;BMP180;68951;53.130;18.104;2023-06-14T05:18:15;101320.80;;;
79495;BMP180;68951;53.130;18.104;2023-06-14T05:20:42;101331.00;;;
79495;BMP180;68951;53.130;18.104;2023-06-14T05:23:09;101332.00;;;
79495;BMP180;68951;53.130;18.104;2023-06-14T05:25:44;101326.20;;;
79495;BMP180;68951;53.130;18.104;2023-06-14T05:28:11;101316.00;;;
79495;BMP180;68951;53.130;18.104;2023-06-14T05:30:39;101314.60;;;
79495;BMP180;68951;53.130;18.104;2023-06-14T05:33:06;101310.60;;;
79495;BMP180;68951;53.130;18.104;2023-06-14T05:35:34;101304.20;;;
79495;BMP180;68951;53.130;18.104;2023-06-14T05:38:01;101300.60;;;
79495;BMP180;68951;53.130;18.104;2023-06-14T05:40:28;101291.40;;;
79495;BMP180;68951;53.130;18.104;2023-06-14T05:42:55;101285.20;;;
79495;BMP180;68951;53.130;18.104;2023-06-14T05:45:22;101287.00;;;
79495;BMP180;68951;53.130;18.104;2023-06-14T05:47:49;101293.00;;;
79495;BMP180;68951;53.130;18.104;2023-06-14T05:50:17;101293.20;;;
79495;BMP180;68951;53.130;18.104;2023-06-14T05:52:43;101284.20;;;
79495;BMP180;68951;53.130;18.104;2023-06-14T05:55:10;101277.00;;;
79495;BMP180;68951;53.130;18.104;2023-06-14T05:57:38;101281.60;;;
79495;BMP180;68951;53.130;18.104;2023-06-14T06:00:07;101284.60;;;
79495;BMP180;68951;53.130;18.104;2023-06-14T06:02:38;101286.00;;;
79495;BMP180;68951;53.130;18.104;2023-06-14T06:05:05;101290.40;;;
79495;BMP180;68951;53.130;18.104;2023-06-14T06:07:32;101291.40;;;
79495;BMP180;68951;53.130;18.104;2023-06-14T06:09:59;101289.60;;;
79495;BMP180;68951;53.130;18.104;2023-06-14T06:12:26;101287.80;;;
79495;BMP180;68951;53.130;18.104;2023-06-14T06:14:53;101291.80;;;
79495;BMP180;68951;53.130;18.104;2023-06-14T06:17:20;101297.40;;;
79495;BMP180;68951;53.130;18.104;2023-06-14T06:19:47;101296.40;;;
79495;BMP180;68951;53.130;18.104;2023-06-14T06:22:14;101301.60;;;
79495;BMP180;68951;53.130;18.104;2023-06-14T06:24:41;101308.00;;;
79495;BMP180;68951;53.130;18.104;2023-06-14T06:27:08;101311.40;;;
79495;BMP180;68951;53.130;18.104;2023-06-14T06:29:35;101314.40;;;
79495;BMP180;68951;53.130;18.104;2023-06-14T06:32:02;101313.40;;;
79495;BMP180;68951;53.130;18.104;2023-06-14T06:34:29;101313.00;;;
79495;BMP180;68951;53.130;18.104;2023-06-14T06:36:56;101314.20;;;
79495;BMP180;68951;53.130;18.104;2023-06-14T06:39:23;101321.80;;;
79495;BMP180;68951;53.130;18.104;2023-06-14T06:41:50;101315.00;;;
79495;BMP180;68951;53.130;18.104;2023-06-14T06:44:17;101324.80;;;
79495;BMP180;68951;53.130;18.104;2023-06-14T06:46:44;101327.80;;;
79495;BMP180;68951;53.130;18.104;2023-06-14T06:49:11;101328.60;;;
79495;BMP180;68951;53.130;18.104;2023-06-14T06:52:07;101329.60;;;
79495;BMP180;68951;53.130;18.104;2023-06-14T06:54:34;101331.40;;;
79495;BMP180;68951;53.130;18.104;2023-06-14T06:57:01;101335.40;;;
79495;BMP180;68951;53.130;18.104;2023-06-14T06:59:28;101336.80;;;
79495;BMP180;68951;53.130;18.104;2023-06-14T07:01:55;101341.60;;;
79495;BMP180;68951;53.130;18.104;2023-06-14T07:04:22;101340.40;;;
79495;BMP180;68951;53.130;18.104;2023-06-14T07:06:49;101339.80;;;
79495;BMP180;68951;53.130;18.104;2023-06-14T07:09:16;101336.80;;;
79495;BMP180;68951;53.130;18.104;2023-06-14T07:11:44;101335.40;;;
79495;BMP180;68951;53.130;18.104;2023-06-14T07:14:11;101344.40;;;
79495;BMP180;68951;53.130;18.104;2023-06-14T07:16:39;101343.60;;;
79495;BMP180;68951;53.130;18.104;2023-06-14T07:19:07;101347.40;;;
79495;BMP180;68951;53.130;18.104;2023-06-14T07:21:36;101355.40;;;
79495;BMP180;68951;53.130;18.104;2023-06-14T07:24:08;101358.00;;;
79495;BMP180;68951;53.130;18.104;2023-06-14T07:26:35;101346.80;;;
79495;BMP180;68951;53.130;18.104;2023-06-14T07:29:02;101344.60;;;
79495;BMP180;68951;53.130;18.104;2023-06-14T07:31:29;101339.20;;;
79495;BMP180;68951;53.130;18.104;2023-06-14T07:33:56;101343.00;;;
79495;BMP180;68951;53.130;18.104;2023-06-14T07:36:23;101339.00;;;
79495;BMP180;68951;53.130;18.104;2023-06-14T07:38:50;101330.60;;;
79495;BMP180;68951;53.130;18.104;2023-06-14T07:41:17;101329.60;;;
79495;BMP180;68951;53.130;18.104;2023-06-14T07:43:44;101321.60;;;
79495;BMP180;68951;53.130;18.104;2023-06-14T07:46:11;101316.60;;;
79495;BMP180;68951;53.130;18.104;2023-06-14T07:48:38;101314.00;;;
79495;BMP180;68951;53.130;18.104;2023-06-14T07:51:05;101322.40;;;
79495;BMP180;68951;53.130;18.104;2023-06-14T07:53:32;101327.80;;;
79495;BMP180;68951;53.130;18.104;2023-06-14T07:55:59;101322.20;;;
79495;BMP180;68951;53.130;18.104;2023-06-14T07:58:26;101312.80;;;
79495;BMP180;68951;53.130;18.104;2023-06-14T08:00:53;101318.40;;;
79495;BMP180;68951;53.130;18.104;2023-06-14T08:03:20;101322.60;;;
79495;BMP180;68951;53.130;18.104;2023-06-14T08:05:47;101327.00;;;
79495;BMP180;68951;53.130;18.104;2023-06-14T08:08:14;101324.60;;;
79495;BMP180;68951;53.130;18.104;2023-06-14T08:10:41;101328.20;;;
79495;BMP180;68951;53.130;18.104;2023-06-14T08:13:08;101326.00;;;
79495;BMP180;68951;53.130;18.104;2023-06-14T08:15:36;101323.60;;;
79495;BMP180;68951;53.130;18.104;2023-06-14T08:18:03;101330.00;;;
79495;BMP180;68951;53.130;18.104;2023-06-14T08:20:30;101337.80;;;
79495;BMP180;68951;53.130;18.104;2023-06-14T08:22:58;101343.60;;;
79495;BMP180;68951;53.130;18.104;2023-06-14T08:25:25;101335.60;;;
79495;BMP180;68951;53.130;18.104;2023-06-14T08:27:52;101335.00;;;
79495;BMP180;68951;53.130;18.104;2023-06-14T08:30:19;101339.80;;;
79495;BMP180;68951;53.130;18.104;2023-06-14T08:32:46;101344.40;;;
79495;BMP180;68951;53.130;18.104;2023-06-14T08:35:13;101358.80;;;
79495;BMP180;68951;53.130;18.104;2023-06-14T08:37:41;101355.40;;;
79495;BMP180;68951;53.130;18.104;2023-06-14T08:40:20;101353.20;;;
79495;BMP180;68951;53.130;18.104;2023-06-14T08:42:52;101348.40;;;
79495;BMP180;68951;53.130;18.104;2023-06-14T08:45:22;101352.00;;;
79495;BMP180;68951;53.130;18.104;2023-06-14T08:47:50;101345.00;;;
79495;BMP180;68951;53.130;18.104;2023-06-14T08:50:22;101351.00;;;
79495;BMP180;68951;53.130;18.104;2023-06-14T08:52:54;101350.20;;;
79495;BMP180;68951;53.130;18.104;2023-06-14T08:55:23;101351.40;;;
79495;BMP180;68951;53.130;18.104;2023-06-14T08:57:56;101352.80;;;
79495;BMP180;68951;53.130;18.104;2023-06-14T09:00:28;101347.00;;;
79495;BMP180;68951;53.130;18.104;2023-06-14T09:02:55;101355.40;;;
79495;BMP180;68951;53.130;18.104;2023-06-14T09:05:26;101354.00;;;
79495;BMP180;68951;53.130;18.104;2023-06-14T09:07:54;101357.20;;;
79495;BMP180;68951;53.130;18.104;2023-06-14T09:10:22;101367.00;;;
79495;BMP180;68951;53.130;18.104;2023-06-14T09:12:51;101363.80;;;
79495;BMP180;68951;53.130;18.104;2023-06-14T09:15:18;101368.80;;;
79495;BMP180;68951;53.130;18.104;2023-06-14T09:17:44;101369.00;;;
79495;BMP180;68951;53.130;18.104;2023-06-14T09:20:11;101367.80;;;
79495;BMP180;68951;53.130;18.104;2023-06-14T09:22:46;101367.40;;;
79495;BMP180;68951;53.130;18.104;2023-06-14T09:25:13;101365.80;;;
79495;BMP180;68951;53.130;18.104;2023-06-14T09:27:42;101367.80;;;
79495;BMP180;68951;53.130;18.104;2023-06-14T09:30:10;101366.80;;;
79495;BMP180;68951;53.130;18.104;2023-06-14T09:32:41;101361.60;;;
79495;BMP180;68951;53.130;18.104;2023-06-14T09:35:09;101362.00;;;
79495;BMP180;68951;53.130;18.104;2023-06-14T09:37:36;101361.40;;;
79495;BMP180;68951;53.130;18.104;2023-06-14T09:40:06;101358.80;;;
79495;BMP180;68951;53.130;18.104;2023-06-14T09:42:33;101356.40;;;
79495;BMP180;68951;53.130;18.104;2023-06-14T09:45:03;101356.80;;;
79495;BMP180;68951;53.130;18.104;2023-06-14T09:47:30;101350.20;;;
79495;BMP180;68951;53.130;18.104;2023-06-14T09:49:57;101350.80;;;
79495;BMP180;68951;53.130;18.104;2023-06-14T09:52:27;101341.40;;;
79495;BMP180;68951;53.130;18.104;2023-06-14T09:54:55;101349.80;;;
79495;BMP180;68951;53.130;18.104;2023-06-14T09:57:23;101341.20;;;
79495;BMP180;68951;53.130;18.104;2023-06-14T09:59:57;101339.80;;;
79495;BMP180;68951;53.130;18.104;2023-06-14T10:02:37;101336.60;;;
79495;BMP180;68951;53.130;18.104;2023-06-14T10:05:11;101342.80;;;
79495;BMP180;68951;53.130;18.104;2023-06-14T10:07:44;101336.00;;;
79495;BMP180;68951;53.130;18.104;2023-06-14T10:10:12;101335.00;;;
79495;BMP180;68951;53.130;18.104;2023-06-14T10:12:39;101332.20;;;
79495;BMP180;68951;53.130;18.104;2023-06-14T10:15:10;101335.60;;;
79495;BMP180;68951;53.130;18.104;2023-06-14T10:17:47;101340.80;;;
79495;BMP180;68951;53.130;18.104;2023-06-14T10:21:13;101332.00;;;
79495;BMP180;68951;53.130;18.104;2023-06-14T10:23:19;101332.80;;;
79495;BMP180;68951;53.130;18.104;2023-06-14T10:25:54;101332.80;;;
79495;BMP180;68951;53.130;18.104;2023-06-14T10:28:23;101328.20;;;
79495;BMP180;68951;53.130;18.104;2023-06-14T10:31:11;101327.80;;;
79495;BMP180;68951;53.130;18.104;2023-06-14T10:33:55;101330.40;;;
79495;BMP180;68951;53.130;18.104;2023-06-14T10:39:10;101325.60;;;
79495;BMP180;68951;53.130;18.104;2023-06-14T10:41:39;101324.60;;;
79495;BMP180;68951;53.130;18.104;2023-06-14T10:46:49;101319.80;;;
79495;BMP180;68951;53.130;18.104;2023-06-14T10:49:20;101319.00;;;
79495;BMP180;68951;53.130;18.104;2023-06-14T10:51:51;101315.20;;;
79495;BMP180;68951;53.130;18.104;2023-06-14T10:54:21;101310.20;;;
79495;BMP180;68951;53.130;18.104;2023-06-14T10:56:52;101312.80;;;
79495;BMP180;68951;53.130;18.104;2023-06-14T10:59:20;101314.20;;;
79495;BMP180;68951;53.130;18.104;2023-06-14T11:04:52;101314.80;;;
79495;BMP180;68951;53.130;18.104;2023-06-14T11:07:47;101313.20;;;
79495;BMP180;68951;53.130;18.104;2023-06-14T11:10:45;101309.80;;;
79495;BMP180;68951;53.130;18.104;2023-06-14T11:13:16;101303.80;;;
79495;BMP180;68951;53.130;18.104;2023-06-14T11:15:47;101315.00;;;
79495;BMP180;68951;53.130;18.104;2023-06-14T11:18:15;101313.60;;;
79495;BMP180;68951;53.130;18.104;2023-06-14T11:20:46;101305.60;;;
79495;BMP180;68951;53.130;18.104;2023-06-14T11:23:13;101309.00;;;
79495;BMP180;68951;53.130;18.104;2023-06-14T11:25:40;101312.40;;;
79495;BMP180;68951;53.130;18.104;2023-06-14T11:28:07;101308.60;;;
79495;BMP180;68951;53.130;18.104;2023-06-14T11:30:33;101312.00;;;
79495;BMP180;68951;53.130;18.104;2023-06-14T11:33:01;101317.00;;;
79495;BMP180;68951;53.130;18.104;2023-06-14T11:35:27;101317.60;;;
79495;BMP180;68951;53.130;18.104;2023-06-14T11:37:56;101315.80;;;
79495;BMP180;68951;53.130;18.104;2023-06-14T11:40:27;101317.60;;;
79495;BMP180;68951;53.130;18.104;2023-06-14T11:43:01;101312.40;;;
79495;BMP180;68951;53.130;18.104;2023-06-14T11:45:29;101310.60;;;
79495;BMP180;68951;53.130;18.104;2023-06-14T11:47:58;101315.80;;;
79495;BMP180;68951;53.130;18.104;2023-06-14T11:50:27;101316.40;;;
79495;BMP180;68951;53.130;18.104;2023-06-14T11:52:56;101312.20;;;
79495;BMP180;68951;53.130;18.104;2023-06-14T11:55:24;101307.00;;;
79495;BMP180;68951;53.130;18.104;2023-06-14T11:57:54;101310.20;;;
79495;BMP180;68951;53.130;18.104;2023-06-14T12:00:26;101305.40;;;
79495;BMP180;68951;53.130;18.104;2023-06-14T12:02:54;101305.20;;;
79495;BMP180;68951;53.130;18.104;2023-06-14T12:05:25;101300.60;;;
79495;BMP180;68951;53.130;18.104;2023-06-14T12:08:01;101306.20;;;
79495;BMP180;68951;53.130;18.104;2023-06-14T12:10:29;101300.60;;;
79495;BMP180;68951;53.130;18.104;2023-06-14T12:12:58;101304.00;;;
79495;BMP180;68951;53.130;18.104;2023-06-14T12:15:29;101306.80;;;
79495;BMP180;68951;53.130;18.104;2023-06-14T12:17:58;101308.20;;;
79495;BMP180;68951;53.130;18.104;2023-06-14T12:20:30;101301.00;;;
79495;BMP180;68951;53.130;18.104;2023-06-14T12:23:03;101301.80;;;
79495;BMP180;68951;53.130;18.104;2023-06-14T12:25:33;101297.60;;;
79495;BMP180;68951;53.130;18.104;2023-06-14T12:28:09;101288.60;;;
79495;BMP180;68951;53.130;18.104;2023-06-14T12:30:37;101292.00;;;
79495;BMP180;68951;53.130;18.104;2023-06-14T12:33:05;101288.20;;;
79495;BMP180;68951;53.130;18.104;2023-06-14T12:35:32;101288.40;;;
79495;BMP180;68951;53.130;18.104;2023-06-14T12:38:00;101290.00;;;
79495;BMP180;68951;53.130;18.104;2023-06-14T12:40:27;101293.60;;;
79495;BMP180;68951;53.130;18.104;2023-06-14T12:42:54;101294.20;;;
79495;BMP180;68951;53.130;18.104;2023-06-14T12:45:21;101292.80;;;
79495;BMP180;68951;53.130;18.104;2023-06-14T12:47:49;101296.20;;;
79495;BMP180;68951;53.130;18.104;2023-06-14T12:50:16;101292.80;;;
79495;BMP180;68951;53.130;18.104;2023-06-14T12:52:43;101299.40;;;
79495;BMP180;68951;53.130;18.104;2023-06-14T12:55:10;101301.20;;;
79495;BMP180;68951;53.130;18.104;2023-06-14T12:57:37;101306.00;;;
79495;BMP180;68951;53.130;18.104;2023-06-14T13:00:05;101306.40;;;
79495;BMP180;68951;53.130;18.104;2023-06-14T13:02:34;101308.40;;;
79495;BMP180;68951;53.130;18.104;2023-06-14T13:05:01;101311.80;;;
79495;BMP180;68951;53.130;18.104;2023-06-14T13:07:30;101312.20;;;
79495;BMP180;68951;53.130;18.104;2023-06-14T13:09:58;101312.60;;;
79495;BMP180;68951;53.130;18.104;2023-06-14T13:12:25;101320.00;;;
79495;BMP180;68951;53.130;18.104;2023-06-14T13:14:52;101321.20;;;
79495;BMP180;68951;53.130;18.104;2023-06-14T13:17:18;101325.00;;;
79495;BMP180;68951;53.130;18.104;2023-06-14T13:19:45;101322.80;;;
79495;BMP180;68951;53.130;18.104;2023-06-14T13:22:12;101322.80;;;
79495;BMP180;68951;53.130;18.104;2023-06-14T13:24:39;101322.20;;;
79495;BMP180;68951;53.130;18.104;2023-06-14T13:27:06;101323.60;;;
79495;BMP180;68951;53.130;18.104;2023-06-14T13:29:33;101320.60;;;
79495;BMP180;68951;53.130;18.104;2023-06-14T13:32:03;101320.80;;;
79495;BMP180;68951;53.130;18.104;2023-06-14T13:34:30;101320.20;;;
79495;BMP180;68951;53.130;18.104;2023-06-14T13:36:57;101321.60;;;
79495;BMP180;68951;53.130;18.104;2023-06-14T13:39:26;101321.60;;;
79495;BMP180;68951;53.130;18.104;2023-06-14T13:41:52;101316.40;;;
79495;BMP180;68951;53.130;18.104;2023-06-14T13:44:19;101312.80;;;
79495;BMP180;68951;53.130;18.104;2023-06-14T13:46:48;101318.60;;;
79495;BMP180;68951;53.130;18.104;2023-06-14T13:49:15;101318.20;;;
79495;BMP180;68951;53.130;18.104;2023-06-14T13:51:42;101314.00;;;
79495;BMP180;68951;53.130;18.104;2023-06-14T13:54:09;101310.00;;;
79495;BMP180;68951;53.130;18.104;2023-06-14T13:56:35;101313.00;;;
79495;BMP180;68951;53.130;18.104;2023-06-14T13:59:02;101316.80;;;
79495;BMP180;68951;53.130;18.104;2023-06-14T14:01:30;101315.80;;;
79495;BMP180;68951;53.130;18.104;2023-06-14T14:03:57;101320.40;;;
79495;BMP180;68951;53.130;18.104;2023-06-14T14:06:25;101318.40;;;
79495;BMP180;68951;53.130;18.104;2023-06-14T14:08:52;101322.60;;;
79495;BMP180;68951;53.130;18.104;2023-06-14T14:11:19;101316.00;;;
79495;BMP180;68951;53.130;18.104;2023-06-14T14:13:47;101315.40;;;
79495;BMP180;68951;53.130;18.104;2023-06-14T14:16:15;101323.80;;;
79495;BMP180;68951;53.130;18.104;2023-06-14T14:18:42;101324.40;;;
79495;BMP180;68951;53.130;18.104;2023-06-14T14:21:09;101329.80;;;
79495;BMP180;68951;53.130;18.104;2023-06-14T14:23:36;101327.00;;;
79495;BMP180;68951;53.130;18.104;2023-06-14T14:26:03;101324.00;;;
79495;BMP180;68951;53.130;18.104;2023-06-14T14:28:31;101320.40;;;
79495;BMP180;68951;53.130;18.104;2023-06-14T14:30:59;101317.40;;;
79495;BMP180;68951;53.130;18.104;2023-06-14T14:33:26;101314.20;;;
79495;BMP180;68951;53.130;18.104;2023-06-14T14:35:53;101310.40;;;
79495;BMP180;68951;53.130;18.104;2023-06-14T14:38:20;101307.40;;;
79495;BMP180;68951;53.130;18.104;2023-06-14T14:40:48;101301.40;;;
79495;BMP180;68951;53.130;18.104;2023-06-14T14:43:15;101304.80;;;
79495;BMP180;68951;53.130;18.104;2023-06-14T14:45:42;101307.40;;;
79495;BMP180;68951;53.130;18.104;2023-06-14T14:48:09;101302.60;;;
79495;BMP180;68951;53.130;18.104;2023-06-14T14:50:36;101299.40;;;
79495;BMP180;68951;53.130;18.104;2023-06-14T14:53:05;101296.20;;;
79495;BMP180;68951;53.130;18.104;2023-06-14T14:55:32;101298.20;;;
79495;BMP180;68951;53.130;18.104;2023-06-14T14:58:02;101307.80;;;
79495;BMP180;68951;53.130;18.104;2023-06-14T15:00:29;101306.00;;;
79495;BMP180;68951;53.130;18.104;2023-06-14T15:02:56;101306.20;;;
79495;BMP180;68951;53.130;18.104;2023-06-14T15:05:23;101302.20;;;
79495;BMP180;68951;53.130;18.104;2023-06-14T15:07:50;101306.00;;;